SYN002 KSMF-KSAN
Flight info
| Callsign | SYN002 |
|---|---|
| Flight time | 1h 13m |
| Altitude | 37000 |
| Route | FTHIL3 FRA EHF HUULK COMIX2 |
| Aircraft | BCS3/M-SBDE2E3GIRWXY/LB1 |
Departure
| Time | 2026-05-05 02:47 |
|---|---|
| Airport | Sacramento International Airport (KSMF) |
Arrival
| Time | 2026-05-05 04:00 |
|---|---|
| Airport | San Diego International Airport (KSAN) |
| Time | Latitude | Longitude | Altitude | Speed | Heading |
|---|---|---|---|---|---|
| 2026-05-05 02:25 | 38.69629 | -121.59304 | 36 ft | 0 kts | 199° |
| 2026-05-05 02:35 | 38.69637 | -121.59300 | 34 ft | 2 kts | 199° |
| 2026-05-05 02:35 | 38.69652 | -121.59293 | 35 ft | 2 kts | 199° |
| 2026-05-05 02:36 | 38.69653 | -121.59293 | 34 ft | 0 kts | 199° |
| 2026-05-05 02:37 | 38.69664 | -121.59287 | 35 ft | 2 kts | 219° |
| 2026-05-05 02:37 | 38.69674 | -121.59274 | 32 ft | 0 kts | 243° |
| 2026-05-05 02:38 | 38.69671 | -121.59281 | 36 ft | 2 kts | 243° |
| 2026-05-05 02:38 | 38.69669 | -121.59287 | 34 ft | 2 kts | 253° |
| 2026-05-05 02:39 | 38.69662 | -121.59317 | 36 ft | 5 kts | 253° |
| 2026-05-05 02:39 | 38.69661 | -121.59337 | 36 ft | 0 kts | 273° |
| 2026-05-05 02:40 | 38.69662 | -121.59346 | 36 ft | 3 kts | 277° |
| 2026-05-05 02:40 | 38.69667 | -121.59403 | 36 ft | 9 kts | 277° |
| 2026-05-05 02:40 | 38.69686 | -121.59503 | 36 ft | 13 kts | 290° |
| 2026-05-05 02:40 | 38.69702 | -121.59612 | 36 ft | 11 kts | 274° |
| 2026-05-05 02:41 | 38.69704 | -121.59710 | 35 ft | 10 kts | 270° |
| 2026-05-05 02:41 | 38.69704 | -121.59795 | 35 ft | 9 kts | 274° |
| 2026-05-05 02:41 | 38.69732 | -121.59850 | 35 ft | 7 kts | 329° |
| 2026-05-05 02:41 | 38.69751 | -121.59858 | 35 ft | 2 kts | 350° |
| 2026-05-05 02:42 | 38.69763 | -121.59860 | 34 ft | 3 kts | 351° |
| 2026-05-05 02:42 | 38.69796 | -121.59863 | 34 ft | 7 kts | 358° |
| 2026-05-05 02:42 | 38.69852 | -121.59864 | 34 ft | 9 kts | 359° |
| 2026-05-05 02:42 | 38.69924 | -121.59862 | 35 ft | 11 kts | 2° |
| 2026-05-05 02:43 | 38.70013 | -121.59859 | 36 ft | 15 kts | 0° |
| 2026-05-05 02:43 | 38.70096 | -121.59858 | 36 ft | 22 kts | 0° |
| 2026-05-05 02:43 | 38.70279 | -121.59856 | 34 ft | 29 kts | 1° |
| 2026-05-05 02:43 | 38.70492 | -121.59850 | 35 ft | 31 kts | 1° |
| 2026-05-05 02:44 | 38.70675 | -121.59852 | 35 ft | 11 kts | 351° |
| 2026-05-05 02:44 | 38.70703 | -121.59868 | 34 ft | 0 kts | 317° |
| 2026-05-05 02:44 | 38.70704 | -121.59868 | 34 ft | 0 kts | 317° |
| 2026-05-05 02:44 | 38.70709 | -121.59877 | 34 ft | 3 kts | 305° |
| 2026-05-05 02:45 | 38.70721 | -121.59953 | 35 ft | 10 kts | 271° |
| 2026-05-05 02:45 | 38.70720 | -121.59969 | 35 ft | 0 kts | 269° |
| 2026-05-05 02:45 | 38.70720 | -121.59998 | 35 ft | 8 kts | 269° |
| 2026-05-05 02:46 | 38.70694 | -121.60093 | 32 ft | 15 kts | 214° |
| 2026-05-05 02:46 | 38.70565 | -121.60110 | 37 ft | 35 kts | 181° |
| 2026-05-05 02:46 | 38.70125 | -121.60119 | 38 ft | 90 kts | 181° |
| 2026-05-05 02:46 | 38.69333 | -121.60135 | 42 ft | 135 kts | 179° |
| 2026-05-05 02:47 | 38.68446 | -121.60144 | 652 ft | 126 kts | 179° |
| 2026-05-05 02:47 | 38.67569 | -121.59724 | 972 ft | 147 kts | 134° |
| 2026-05-05 02:47 | 38.66929 | -121.58615 | 1524 ft | 162 kts | 126° |
| 2026-05-05 02:47 | 38.66302 | -121.57396 | 2387 ft | 164 kts | 126° |
| 2026-05-05 02:48 | 38.65673 | -121.56177 | 3273 ft | 164 kts | 126° |
| 2026-05-05 02:48 | 38.65015 | -121.54904 | 3988 ft | 180 kts | 126° |
| 2026-05-05 02:48 | 38.64296 | -121.53517 | 4712 ft | 195 kts | 126° |
| 2026-05-05 02:48 | 38.63511 | -121.52005 | 5432 ft | 212 kts | 125° |
| 2026-05-05 02:49 | 38.62663 | -121.50367 | 6190 ft | 229 kts | 124° |
| 2026-05-05 02:49 | 38.61751 | -121.48607 | 6883 ft | 247 kts | 124° |
| 2026-05-05 02:49 | 38.60781 | -121.46735 | 7604 ft | 264 kts | 123° |
| 2026-05-05 02:49 | 38.59722 | -121.44689 | 8349 ft | 281 kts | 123° |
| 2026-05-05 02:50 | 38.58633 | -121.42584 | 8925 ft | 293 kts | 122° |
| 2026-05-05 02:50 | 38.57506 | -121.40408 | 9024 ft | 292 kts | 122° |
| 2026-05-05 02:50 | 38.56378 | -121.38229 | 9260 ft | 298 kts | 122° |
| 2026-05-05 02:50 | 38.55254 | -121.36063 | 10455 ft | 291 kts | 122° |
| 2026-05-05 02:51 | 38.54106 | -121.33850 | 11008 ft | 307 kts | 122° |
| 2026-05-05 02:51 | 38.52903 | -121.31528 | 11430 ft | 321 kts | 121° |
| 2026-05-05 02:51 | 38.51664 | -121.29142 | 12105 ft | 323 kts | 121° |
| 2026-05-05 02:51 | 38.50416 | -121.26742 | 12806 ft | 325 kts | 121° |
| 2026-05-05 02:52 | 38.49160 | -121.24328 | 13506 ft | 328 kts | 121° |
| 2026-05-05 02:52 | 38.47897 | -121.21901 | 14195 ft | 330 kts | 120° |
| 2026-05-05 02:52 | 38.46624 | -121.19457 | 14836 ft | 332 kts | 120° |
| 2026-05-05 02:52 | 38.45346 | -121.17005 | 15500 ft | 333 kts | 120° |
| 2026-05-05 02:53 | 38.44059 | -121.14536 | 16152 ft | 335 kts | 120° |
| 2026-05-05 02:53 | 38.42764 | -121.12056 | 16812 ft | 337 kts | 119° |
| 2026-05-05 02:53 | 38.41463 | -121.09565 | 17470 ft | 338 kts | 119° |
| 2026-05-05 02:53 | 38.40154 | -121.07061 | 18136 ft | 340 kts | 119° |
| 2026-05-05 02:54 | 38.38838 | -121.04543 | 18710 ft | 343 kts | 118° |
| 2026-05-05 02:54 | 38.37512 | -121.02008 | 19242 ft | 345 kts | 118° |
| 2026-05-05 02:54 | 38.36176 | -120.99456 | 19798 ft | 348 kts | 118° |
| 2026-05-05 02:54 | 38.34827 | -120.96881 | 20341 ft | 350 kts | 118° |
| 2026-05-05 02:55 | 38.33473 | -120.94297 | 20879 ft | 353 kts | 118° |
| 2026-05-05 02:55 | 38.32106 | -120.91691 | 21427 ft | 355 kts | 118° |
| 2026-05-05 02:55 | 38.30725 | -120.89060 | 21942 ft | 358 kts | 118° |
| 2026-05-05 02:55 | 38.29338 | -120.86420 | 22465 ft | 361 kts | 118° |
| 2026-05-05 02:56 | 38.27940 | -120.83760 | 22980 ft | 364 kts | 118° |
| 2026-05-05 02:56 | 38.26525 | -120.81070 | 23499 ft | 366 kts | 118° |
| 2026-05-05 02:56 | 38.25102 | -120.78368 | 23891 ft | 370 kts | 118° |
| 2026-05-05 02:56 | 38.23665 | -120.75639 | 24303 ft | 372 kts | 118° |
| 2026-05-05 02:57 | 38.22219 | -120.72897 | 24720 ft | 374 kts | 118° |
| 2026-05-05 02:57 | 38.20764 | -120.70140 | 25129 ft | 376 kts | 118° |
| 2026-05-05 02:57 | 38.19300 | -120.67368 | 25523 ft | 378 kts | 118° |
| 2026-05-05 02:57 | 38.17827 | -120.64581 | 25904 ft | 381 kts | 118° |
| 2026-05-05 02:58 | 38.16348 | -120.61786 | 26270 ft | 383 kts | 118° |
| 2026-05-05 02:58 | 38.14857 | -120.58969 | 26645 ft | 385 kts | 118° |
| 2026-05-05 02:58 | 38.13360 | -120.56145 | 27020 ft | 386 kts | 118° |
| 2026-05-05 02:58 | 38.11857 | -120.53310 | 27370 ft | 388 kts | 118° |
| 2026-05-05 02:59 | 38.10345 | -120.50460 | 27700 ft | 390 kts | 118° |
| 2026-05-05 02:59 | 38.08826 | -120.47600 | 28045 ft | 391 kts | 118° |
| 2026-05-05 02:59 | 38.07304 | -120.44733 | 28341 ft | 394 kts | 118° |
| 2026-05-05 02:59 | 38.05767 | -120.41847 | 28664 ft | 395 kts | 119° |
| 2026-05-05 03:00 | 38.04189 | -120.38980 | 28932 ft | 397 kts | 120° |
| 2026-05-05 03:00 | 38.02594 | -120.36115 | 29227 ft | 399 kts | 120° |
| 2026-05-05 03:00 | 38.00989 | -120.33238 | 29510 ft | 400 kts | 120° |
| 2026-05-05 03:00 | 37.99379 | -120.30349 | 29763 ft | 402 kts | 119° |
| 2026-05-05 03:01 | 37.97759 | -120.27445 | 30022 ft | 404 kts | 119° |
| 2026-05-05 03:01 | 37.96136 | -120.24537 | 30223 ft | 406 kts | 120° |
| 2026-05-05 03:01 | 37.94243 | -120.21837 | 30374 ft | 419 kts | 135° |
| 2026-05-05 03:01 | 37.91828 | -120.19702 | 30560 ft | 426 kts | 142° |
| 2026-05-05 03:02 | 37.89291 | -120.17747 | 30743 ft | 429 kts | 143° |
| 2026-05-05 03:02 | 37.86720 | -120.15818 | 30955 ft | 430 kts | 144° |
| 2026-05-05 03:02 | 37.84166 | -120.13910 | 31113 ft | 432 kts | 144° |
| 2026-05-05 03:02 | 37.81575 | -120.11978 | 31277 ft | 433 kts | 144° |
| 2026-05-05 03:03 | 37.78976 | -120.10041 | 31430 ft | 435 kts | 145° |
| 2026-05-05 03:03 | 37.76371 | -120.08102 | 31592 ft | 436 kts | 145° |
| 2026-05-05 03:03 | 37.73753 | -120.06155 | 31747 ft | 437 kts | 145° |
| 2026-05-05 03:03 | 37.71134 | -120.04210 | 31902 ft | 438 kts | 146° |
| 2026-05-05 03:04 | 37.68507 | -120.02259 | 32043 ft | 439 kts | 146° |
| 2026-05-05 03:04 | 37.65870 | -120.00303 | 32169 ft | 440 kts | 146° |
| 2026-05-05 03:04 | 37.63227 | -119.98343 | 32296 ft | 441 kts | 146° |
| 2026-05-05 03:04 | 37.60579 | -119.96382 | 32432 ft | 441 kts | 146° |
| 2026-05-05 03:05 | 37.57926 | -119.94418 | 32513 ft | 443 kts | 146° |
| 2026-05-05 03:05 | 37.55266 | -119.92452 | 32620 ft | 444 kts | 147° |
| 2026-05-05 03:05 | 37.52601 | -119.90483 | 32728 ft | 445 kts | 147° |
| 2026-05-05 03:06 | 37.47249 | -119.86535 | 32916 ft | 447 kts | 147° |
| 2026-05-05 03:06 | 37.41873 | -119.82576 | 33089 ft | 448 kts | 148° |
| 2026-05-05 03:07 | 37.36484 | -119.78613 | 33253 ft | 449 kts | 148° |
| 2026-05-05 03:07 | 37.31076 | -119.74644 | 33407 ft | 451 kts | 149° |
| 2026-05-05 03:07 | 37.28375 | -119.72663 | 33542 ft | 450 kts | 149° |
| 2026-05-05 03:08 | 37.25674 | -119.70684 | 33660 ft | 449 kts | 149° |
| 2026-05-05 03:08 | 37.22977 | -119.68710 | 33778 ft | 449 kts | 149° |
| 2026-05-05 03:08 | 37.20280 | -119.66738 | 33893 ft | 448 kts | 150° |
| 2026-05-05 03:09 | 37.14889 | -119.62800 | 34076 ft | 448 kts | 150° |
| 2026-05-05 03:09 | 37.09319 | -119.59330 | 34222 ft | 448 kts | 162° |
| 2026-05-05 03:10 | 37.03350 | -119.57316 | 34410 ft | 447 kts | 166° |
| 2026-05-05 03:10 | 36.97323 | -119.55429 | 34587 ft | 446 kts | 167° |
| 2026-05-05 03:11 | 36.91266 | -119.53536 | 34777 ft | 446 kts | 167° |
| 2026-05-05 03:11 | 36.85255 | -119.51661 | 34971 ft | 445 kts | 167° |
| 2026-05-05 03:12 | 36.79293 | -119.49802 | 35153 ft | 444 kts | 167° |
| 2026-05-05 03:12 | 36.73264 | -119.47926 | 35340 ft | 443 kts | 168° |
| 2026-05-05 03:13 | 36.67330 | -119.46081 | 35514 ft | 442 kts | 168° |
| 2026-05-05 03:13 | 36.61363 | -119.44230 | 35704 ft | 441 kts | 168° |
| 2026-05-05 03:14 | 36.55411 | -119.42385 | 35899 ft | 440 kts | 168° |
| 2026-05-05 03:14 | 36.49471 | -119.40547 | 36095 ft | 439 kts | 168° |
| 2026-05-05 03:14 | 36.46515 | -119.39634 | 36198 ft | 438 kts | 169° |
| 2026-05-05 03:15 | 36.43560 | -119.38721 | 36313 ft | 437 kts | 169° |
| 2026-05-05 03:15 | 36.40609 | -119.37811 | 36428 ft | 436 kts | 169° |
| 2026-05-05 03:15 | 36.37667 | -119.36904 | 36506 ft | 435 kts | 169° |
| 2026-05-05 03:15 | 36.34734 | -119.36000 | 36621 ft | 434 kts | 169° |
| 2026-05-05 03:16 | 36.31802 | -119.35098 | 36711 ft | 434 kts | 169° |
| 2026-05-05 03:16 | 36.25955 | -119.33301 | 36898 ft | 433 kts | 169° |
| 2026-05-05 03:17 | 36.20110 | -119.31507 | 37012 ft | 433 kts | 169° |
| 2026-05-05 03:17 | 36.14240 | -119.29709 | 37011 ft | 436 kts | 169° |
| 2026-05-05 03:18 | 36.08380 | -119.27914 | 36997 ft | 430 kts | 170° |
| 2026-05-05 03:18 | 36.02616 | -119.26152 | 37000 ft | 426 kts | 170° |
| 2026-05-05 03:19 | 35.93926 | -119.23504 | 36998 ft | 431 kts | 170° |
| 2026-05-05 03:19 | 35.88083 | -119.21726 | 36988 ft | 433 kts | 170° |
| 2026-05-05 03:20 | 35.82291 | -119.19963 | 36985 ft | 425 kts | 171° |
| 2026-05-05 03:20 | 35.76538 | -119.18218 | 36993 ft | 427 kts | 171° |
| 2026-05-05 03:21 | 35.70739 | -119.16463 | 36991 ft | 431 kts | 171° |
| 2026-05-05 03:21 | 35.64931 | -119.14705 | 36988 ft | 428 kts | 171° |
| 2026-05-05 03:22 | 35.59178 | -119.12965 | 36982 ft | 425 kts | 171° |
| 2026-05-05 03:22 | 35.53417 | -119.11228 | 36975 ft | 428 kts | 171° |
| 2026-05-05 03:23 | 35.47670 | -119.09243 | 36979 ft | 433 kts | 163° |
| 2026-05-05 03:23 | 35.42178 | -119.06246 | 36974 ft | 432 kts | 161° |
| 2026-05-05 03:24 | 35.36739 | -119.03202 | 36979 ft | 433 kts | 161° |
| 2026-05-05 03:24 | 35.31246 | -119.00136 | 36976 ft | 434 kts | 161° |
| 2026-05-05 03:25 | 35.25764 | -118.97080 | 36976 ft | 431 kts | 162° |
| 2026-05-05 03:25 | 35.20307 | -118.94046 | 36979 ft | 431 kts | 162° |
| 2026-05-05 03:26 | 35.14835 | -118.91008 | 36979 ft | 432 kts | 162° |
| 2026-05-05 03:26 | 35.09374 | -118.87980 | 36979 ft | 430 kts | 162° |
| 2026-05-05 03:27 | 35.03937 | -118.84971 | 36981 ft | 429 kts | 162° |
| 2026-05-05 03:27 | 34.98494 | -118.81964 | 36983 ft | 430 kts | 163° |
| 2026-05-05 03:28 | 34.93053 | -118.78961 | 36984 ft | 427 kts | 163° |
| 2026-05-05 03:28 | 34.87644 | -118.75981 | 36991 ft | 427 kts | 163° |
| 2026-05-05 03:29 | 34.82239 | -118.73007 | 36994 ft | 426 kts | 163° |
| 2026-05-05 03:29 | 34.76835 | -118.70040 | 36992 ft | 426 kts | 163° |
| 2026-05-05 03:30 | 34.71438 | -118.67079 | 37002 ft | 425 kts | 164° |
| 2026-05-05 03:30 | 34.66955 | -118.64624 | 37000 ft | 425 kts | 164° |
| 2026-05-05 03:31 | 34.60697 | -118.61200 | 37001 ft | 424 kts | 164° |
| 2026-05-05 03:31 | 34.56289 | -118.58354 | 37004 ft | 431 kts | 159° |
| 2026-05-05 03:32 | 34.51125 | -118.54657 | 37006 ft | 430 kts | 159° |
| 2026-05-05 03:32 | 34.45977 | -118.50977 | 37005 ft | 430 kts | 159° |
| 2026-05-05 03:33 | 34.40823 | -118.47303 | 37008 ft | 430 kts | 159° |
| 2026-05-05 03:33 | 34.35674 | -118.43639 | 37007 ft | 427 kts | 159° |
| 2026-05-05 03:34 | 34.30770 | -118.40154 | 37030 ft | 427 kts | 160° |
| 2026-05-05 03:34 | 34.25653 | -118.36529 | 37031 ft | 431 kts | 160° |
| 2026-05-05 03:35 | 34.20485 | -118.32869 | 37028 ft | 429 kts | 160° |
| 2026-05-05 03:35 | 34.15367 | -118.29248 | 37028 ft | 426 kts | 160° |
| 2026-05-05 03:36 | 34.10235 | -118.25628 | 37028 ft | 429 kts | 160° |
| 2026-05-05 03:36 | 34.07659 | -118.23813 | 36911 ft | 432 kts | 161° |
| 2026-05-05 03:36 | 34.05037 | -118.21971 | 36348 ft | 438 kts | 161° |
| 2026-05-05 03:37 | 34.02369 | -118.20092 | 35753 ft | 437 kts | 161° |
| 2026-05-05 03:37 | 33.99790 | -118.18273 | 35183 ft | 435 kts | 161° |
| 2026-05-05 03:37 | 33.97187 | -118.16439 | 34621 ft | 432 kts | 162° |
| 2026-05-05 03:37 | 33.94605 | -118.14620 | 34062 ft | 428 kts | 162° |
| 2026-05-05 03:38 | 33.92049 | -118.12823 | 33446 ft | 424 kts | 162° |
| 2026-05-05 03:38 | 33.89515 | -118.11045 | 32839 ft | 420 kts | 162° |
| 2026-05-05 03:38 | 33.87004 | -118.09284 | 32268 ft | 416 kts | 162° |
| 2026-05-05 03:38 | 33.84520 | -118.07546 | 31693 ft | 410 kts | 162° |
| 2026-05-05 03:39 | 33.82039 | -118.05881 | 31163 ft | 405 kts | 163° |
| 2026-05-05 03:39 | 33.79582 | -118.04256 | 30649 ft | 401 kts | 163° |
| 2026-05-05 03:39 | 33.77144 | -118.02646 | 30134 ft | 398 kts | 163° |
| 2026-05-05 03:39 | 33.74728 | -118.01052 | 29537 ft | 395 kts | 163° |
| 2026-05-05 03:40 | 33.72321 | -117.99464 | 28955 ft | 393 kts | 162° |
| 2026-05-05 03:40 | 33.69937 | -117.97891 | 28440 ft | 390 kts | 162° |
| 2026-05-05 03:40 | 33.67559 | -117.96324 | 27912 ft | 389 kts | 162° |
| 2026-05-05 03:40 | 33.65185 | -117.94760 | 27395 ft | 389 kts | 161° |
| 2026-05-05 03:41 | 33.62818 | -117.93201 | 26887 ft | 387 kts | 161° |
| 2026-05-05 03:41 | 33.60460 | -117.91648 | 26385 ft | 386 kts | 161° |
| 2026-05-05 03:41 | 33.58116 | -117.90104 | 25887 ft | 384 kts | 160° |
| 2026-05-05 03:41 | 33.55775 | -117.88564 | 25396 ft | 383 kts | 160° |
| 2026-05-05 03:42 | 33.53442 | -117.87013 | 24906 ft | 384 kts | 159° |
| 2026-05-05 03:42 | 33.51119 | -117.85432 | 24412 ft | 383 kts | 158° |
| 2026-05-05 03:42 | 33.48810 | -117.83857 | 23920 ft | 381 kts | 158° |
| 2026-05-05 03:42 | 33.46503 | -117.82284 | 23378 ft | 381 kts | 157° |
| 2026-05-05 03:43 | 33.44245 | -117.80637 | 22807 ft | 383 kts | 150° |
| 2026-05-05 03:43 | 33.42266 | -117.78480 | 22245 ft | 388 kts | 138° |
| 2026-05-05 03:43 | 33.40402 | -117.76199 | 21717 ft | 377 kts | 147° |
| 2026-05-05 03:43 | 33.38369 | -117.74230 | 21209 ft | 376 kts | 147° |
| 2026-05-05 03:44 | 33.36372 | -117.72225 | 20719 ft | 374 kts | 146° |
| 2026-05-05 03:44 | 33.34418 | -117.70194 | 20237 ft | 371 kts | 145° |
| 2026-05-05 03:44 | 33.32491 | -117.68160 | 19762 ft | 368 kts | 144° |
| 2026-05-05 03:44 | 33.30581 | -117.66137 | 19295 ft | 366 kts | 144° |
| 2026-05-05 03:45 | 33.28683 | -117.64125 | 18833 ft | 363 kts | 144° |
| 2026-05-05 03:45 | 33.26806 | -117.62134 | 18376 ft | 360 kts | 144° |
| 2026-05-05 03:45 | 33.24938 | -117.60151 | 17853 ft | 357 kts | 144° |
| 2026-05-05 03:45 | 33.23105 | -117.58219 | 17346 ft | 356 kts | 144° |
| 2026-05-05 03:46 | 33.21251 | -117.56271 | 16866 ft | 354 kts | 143° |
| 2026-05-05 03:46 | 33.19406 | -117.54333 | 16393 ft | 352 kts | 143° |
| 2026-05-05 03:46 | 33.17572 | -117.52406 | 15934 ft | 351 kts | 143° |
| 2026-05-05 03:46 | 33.15744 | -117.50486 | 15471 ft | 349 kts | 143° |
| 2026-05-05 03:47 | 33.13918 | -117.48593 | 15030 ft | 346 kts | 146° |
| 2026-05-05 03:47 | 33.12000 | -117.46903 | 14625 ft | 342 kts | 149° |
| 2026-05-05 03:47 | 33.10049 | -117.45276 | 14241 ft | 342 kts | 150° |
| 2026-05-05 03:47 | 33.08097 | -117.43657 | 13849 ft | 341 kts | 149° |
| 2026-05-05 03:48 | 33.06157 | -117.42047 | 13386 ft | 339 kts | 149° |
| 2026-05-05 03:48 | 33.04236 | -117.40450 | 12956 ft | 336 kts | 149° |
| 2026-05-05 03:48 | 33.02475 | -117.38975 | 12569 ft | 334 kts | 149° |
| 2026-05-05 03:48 | 33.00742 | -117.37523 | 12194 ft | 333 kts | 149° |
| 2026-05-05 03:49 | 32.98853 | -117.35940 | 11796 ft | 330 kts | 149° |
| 2026-05-05 03:49 | 32.97005 | -117.34390 | 11413 ft | 320 kts | 149° |
| 2026-05-05 03:49 | 32.95211 | -117.32887 | 11038 ft | 312 kts | 149° |
| 2026-05-05 03:49 | 32.93458 | -117.31418 | 10682 ft | 304 kts | 149° |
| 2026-05-05 03:50 | 32.91743 | -117.29982 | 10338 ft | 298 kts | 149° |
| 2026-05-05 03:50 | 32.90064 | -117.28583 | 10004 ft | 292 kts | 149° |
| 2026-05-05 03:50 | 32.88409 | -117.27208 | 9630 ft | 287 kts | 149° |
| 2026-05-05 03:50 | 32.86787 | -117.25861 | 9265 ft | 282 kts | 149° |
| 2026-05-05 03:51 | 32.85191 | -117.24535 | 8926 ft | 277 kts | 149° |
| 2026-05-05 03:51 | 32.83626 | -117.23235 | 8590 ft | 273 kts | 149° |
| 2026-05-05 03:51 | 32.82112 | -117.21917 | 8267 ft | 270 kts | 140° |
| 2026-05-05 03:51 | 32.81074 | -117.20054 | 7952 ft | 273 kts | 114° |
| 2026-05-05 03:52 | 32.80479 | -117.17921 | 7613 ft | 273 kts | 108° |
| 2026-05-05 03:52 | 32.79973 | -117.15747 | 7293 ft | 271 kts | 106° |
| 2026-05-05 03:52 | 32.79488 | -117.13589 | 6973 ft | 269 kts | 106° |
| 2026-05-05 03:52 | 32.79015 | -117.11476 | 6657 ft | 268 kts | 106° |
| 2026-05-05 03:53 | 32.78537 | -117.09345 | 6348 ft | 266 kts | 106° |
| 2026-05-05 03:53 | 32.78058 | -117.07202 | 6052 ft | 263 kts | 106° |
| 2026-05-05 03:53 | 32.77587 | -117.05166 | 5982 ft | 253 kts | 107° |
| 2026-05-05 03:53 | 32.77111 | -117.03206 | 5912 ft | 244 kts | 107° |
| 2026-05-05 03:54 | 32.76634 | -117.01262 | 5615 ft | 244 kts | 108° |
| 2026-05-05 03:54 | 32.76163 | -116.99351 | 5371 ft | 239 kts | 107° |
| 2026-05-05 03:54 | 32.75603 | -116.97502 | 5090 ft | 237 kts | 123° |
| 2026-05-05 03:54 | 32.74487 | -116.96146 | 4772 ft | 225 kts | 151° |
| 2026-05-05 03:55 | 32.73077 | -116.95504 | 4483 ft | 212 kts | 174° |
| 2026-05-05 03:55 | 32.71656 | -116.95555 | 4216 ft | 199 kts | 197° |
| 2026-05-05 03:55 | 32.70432 | -116.96189 | 3980 ft | 188 kts | 217° |
| 2026-05-05 03:55 | 32.69526 | -116.97236 | 3756 ft | 177 kts | 236° |
| 2026-05-05 03:56 | 32.68997 | -116.98512 | 3538 ft | 169 kts | 254° |
| 2026-05-05 03:56 | 32.68843 | -116.99873 | 3348 ft | 165 kts | 271° |
| 2026-05-05 03:56 | 32.69039 | -117.01198 | 3196 ft | 163 kts | 285° |
| 2026-05-05 03:56 | 32.69359 | -117.02516 | 2968 ft | 167 kts | 284° |
| 2026-05-05 03:57 | 32.69676 | -117.03829 | 2781 ft | 164 kts | 284° |
| 2026-05-05 03:57 | 32.69994 | -117.05130 | 2561 ft | 164 kts | 284° |
| 2026-05-05 03:57 | 32.70299 | -117.06374 | 2350 ft | 148 kts | 284° |
| 2026-05-05 03:57 | 32.70573 | -117.07499 | 2151 ft | 138 kts | 284° |
| 2026-05-05 03:58 | 32.70836 | -117.08587 | 2037 ft | 137 kts | 284° |
| 2026-05-05 03:58 | 32.71101 | -117.09682 | 1788 ft | 137 kts | 284° |
| 2026-05-05 03:58 | 32.71365 | -117.10758 | 1576 ft | 137 kts | 284° |
| 2026-05-05 03:58 | 32.71632 | -117.11844 | 1344 ft | 136 kts | 283° |
| 2026-05-05 03:59 | 32.71885 | -117.12908 | 1127 ft | 133 kts | 283° |
| 2026-05-05 03:59 | 32.72145 | -117.13968 | 914 ft | 134 kts | 284° |
| 2026-05-05 03:59 | 32.72401 | -117.15036 | 682 ft | 134 kts | 284° |
| 2026-05-05 03:59 | 32.72657 | -117.16102 | 466 ft | 135 kts | 284° |
| 2026-05-05 04:00 | 32.72922 | -117.17154 | 260 ft | 132 kts | 284° |
| 2026-05-05 04:00 | 32.73161 | -117.18197 | 28 ft | 124 kts | 284° |
| 2026-05-05 04:00 | 32.73352 | -117.18932 | 27 ft | 64 kts | 284° |
| 2026-05-05 04:00 | 32.73367 | -117.19127 | 26 ft | 2 kts | 238° |
| 2026-05-05 04:01 | 32.73353 | -117.19145 | 26 ft | 4 kts | 228° |
| 2026-05-05 04:01 | 32.73328 | -117.19171 | 25 ft | 5 kts | 216° |
| 2026-05-05 04:01 | 32.73309 | -117.19189 | 26 ft | 1 kts | 219° |
| 2026-05-05 04:01 | 32.73299 | -117.19199 | 28 ft | 3 kts | 217° |
| 2026-05-05 04:02 | 32.73282 | -117.19216 | 27 ft | 3 kts | 230° |
| 2026-05-05 04:02 | 32.73275 | -117.19243 | 26 ft | 3 kts | 259° |
| 2026-05-05 04:02 | 32.73278 | -117.19263 | 27 ft | 4 kts | 285° |
| 2026-05-05 04:02 | 32.73294 | -117.19330 | 29 ft | 12 kts | 285° |
| 2026-05-05 04:03 | 32.73323 | -117.19446 | 28 ft | 16 kts | 290° |
| 2026-05-05 04:03 | 32.73338 | -117.19521 | 28 ft | 7 kts | 258° |
| 2026-05-05 04:03 | 32.73313 | -117.19568 | 27 ft | 0 kts | 230° |
| 2026-05-05 04:04 | 32.73314 | -117.19567 | 27 ft | 2 kts | 230° |
| 2026-05-05 04:04 | 32.73323 | -117.19554 | 28 ft | 2 kts | 230° |
| 2026-05-05 04:05 | 32.73332 | -117.19542 | 28 ft | 2 kts | 230° |
| 2026-05-05 04:05 | 32.73333 | -117.19539 | 28 ft | 0 kts | 231° |
| 2026-05-05 04:05 | 32.73333 | -117.19541 | 28 ft | 0 kts | 244° |
| 2026-05-05 04:05 | 32.73331 | -117.19554 | 28 ft | 5 kts | 262° |
| 2026-05-05 04:06 | 32.73351 | -117.19603 | 28 ft | 11 kts | 316° |
| 2026-05-05 04:06 | 32.73426 | -117.19687 | 28 ft | 17 kts | 290° |
| 2026-05-05 04:06 | 32.73456 | -117.19805 | 29 ft | 15 kts | 287° |
| 2026-05-05 04:06 | 32.73476 | -117.19900 | 29 ft | 15 kts | 275° |
| 2026-05-05 04:07 | 32.73410 | -117.19969 | 29 ft | 15 kts | 194° |
| 2026-05-05 04:07 | 32.73345 | -117.19992 | 29 ft | 0 kts | 246° |
| 2026-05-05 04:07 | 32.73345 | -117.19999 | 29 ft | 2 kts | 277° |
| 2026-05-05 04:07 | 32.73347 | -117.20061 | 28 ft | 1 kts | 264° |
| 2026-05-05 04:08 | 32.73347 | -117.20062 | 28 ft | 0 kts | 264° |